Time;durP1;ratioP1;P1;durP2;ratioP2;P2;SDS_P1;SDS_P2;PMS_P1;PMS_P2;Temp;Humidity;BMP_temperature;BMP_pressure;BME280_temperature;BME280_humidity;BME280_pressure;Samples;Min_cycle;Max_cycle;Signal;HPM_P1;HPM_P2
2021/03/17 00:00:13;;;;;;;28.00;14.27;;;4.30;99.90;;;;;;5130091;27;20088;-58
2021/03/17 00:02:39;;;;;;;27.73;14.55;;;4.30;99.90;;;;;;5121088;27;20415;-59
2021/03/17 00:05:06;;;;;;;27.35;14.80;;;4.30;99.90;;;;;;5126555;27;20101;-59
2021/03/17 00:07:33;;;;;;;24.25;15.18;;;4.30;99.90;;;;;;5125344;27;20378;-59
2021/03/17 00:09:58;;;;;;;28.50;15.13;;;4.40;99.90;;;;;;5116485;27;20396;-57
2021/03/17 00:12:24;;;;;;;27.65;15.68;;;4.40;99.90;;;;;;5115906;27;20107;-58
2021/03/17 00:14:50;;;;;;;32.38;16.05;;;4.40;99.90;;;;;;5111575;27;20020;-57
2021/03/17 00:17:15;;;;;;;28.17;15.15;;;4.40;99.90;;;;;;5111945;27;20107;-57
2021/03/17 00:19:41;;;;;;;29.70;15.65;;;4.40;99.90;;;;;;5113849;27;20015;-58
2021/03/17 00:22:08;;;;;;;29.05;15.30;;;4.30;99.90;;;;;;5113489;27;20491;-58
2021/03/17 00:24:35;;;;;;;31.80;15.73;;;4.30;99.90;;;;;;5125741;27;20023;-57
2021/03/17 00:27:00;;;;;;;26.13;13.63;;;4.40;99.90;;;;;;5126449;28;20038;-58
2021/03/17 00:29:26;;;;;;;30.50;15.77;;;4.30;99.90;;;;;;5124677;27;20036;-56
2021/03/17 00:31:51;;;;;;;27.33;15.45;;;4.40;99.90;;;;;;5122079;27;20043;-57
2021/03/17 00:34:17;;;;;;;31.08;15.15;;;4.40;99.90;;;;;;5130924;27;20039;-58
2021/03/17 00:36:43;;;;;;;28.30;14.68;;;4.40;99.90;;;;;;5126008;27;20031;-54
2021/03/17 00:39:09;;;;;;;31.05;14.90;;;4.30;99.90;;;;;;5136366;27;20484;-55
2021/03/17 00:41:34;;;;;;;23.83;13.95;;;4.40;99.90;;;;;;5134832;27;20046;-59
2021/03/17 00:44:00;;;;;;;26.55;14.38;;;4.30;99.90;;;;;;5132915;27;20533;-58
2021/03/17 00:46:26;;;;;;;25.23;13.40;;;4.40;99.90;;;;;;5128932;27;20023;-59
2021/03/17 00:48:51;;;;;;;28.73;14.50;;;4.40;99.90;;;;;;5121149;27;20095;-57
2021/03/17 00:51:18;;;;;;;28.58;14.73;;;4.40;99.90;;;;;;5126011;27;20039;-58
2021/03/17 00:53:43;;;;;;;29.45;14.38;;;4.40;99.90;;;;;;5123535;27;20496;-57
2021/03/17 00:56:09;;;;;;;29.17;14.70;;;4.30;99.90;;;;;;5124517;27;20067;-57
2021/03/17 00:58:35;;;;;;;25.45;14.15;;;4.30;99.90;;;;;;5132815;27;20080;-59
2021/03/17 01:01:00;;;;;;;24.27;14.23;;;4.30;99.90;;;;;;5147146;27;20030;-58
2021/03/17 01:03:26;;;;;;;30.42;15.40;;;4.30;99.90;;;;;;5136917;27;20023;-58
2021/03/17 01:05:51;;;;;;;29.23;14.90;;;4.30;99.90;;;;;;5129871;27;20031;-57
2021/03/17 01:08:17;;;;;;;31.25;14.60;;;4.30;99.90;;;;;;5130366;27;20519;-57
2021/03/17 01:10:45;;;;;;;27.05;14.57;;;4.30;99.90;;;;;;5124638;27;20023;-58
2021/03/17 01:13:11;;;;;;;32.33;15.82;;;4.30;99.90;;;;;;5131216;27;20015;-57
2021/03/17 01:15:37;;;;;;;30.63;15.15;;;4.30;99.90;;;;;;5130119;27;20086;-56
2021/03/17 01:18:04;;;;;;;31.67;17.02;;;4.30;99.90;;;;;;5139788;27;20039;-57
2021/03/17 01:20:30;;;;;;;30.45;17.08;;;4.20;99.90;;;;;;5133776;27;20431;-58
2021/03/17 01:22:57;;;;;;;37.90;18.00;;;4.20;99.90;;;;;;5143591;27;20086;-54
2021/03/17 01:25:37;;;;;;;31.70;16.88;;;4.20;99.90;;;;;;5131075;27;20019;-58
2021/03/17 01:28:05;;;;;;;36.75;17.73;;;4.10;99.90;;;;;;5131419;27;20023;-57
2021/03/17 01:30:34;;;;;;;31.80;17.50;;;4.10;99.90;;;;;;5130564;27;20035;-57
2021/03/17 01:33:01;;;;;;;36.45;19.95;;;4.10;99.90;;;;;;5117315;27;20042;-59
2021/03/17 01:35:27;;;;;;;35.33;18.80;;;4.20;99.90;;;;;;5123940;27;20027;-58
2021/03/17 01:37:53;;;;;;;35.72;18.38;;;4.20;99.90;;;;;;5130103;27;20395;-59
2021/03/17 01:40:24;;;;;;;37.22;19.48;;;4.20;99.90;;;;;;5131818;27;20019;-60
2021/03/17 01:42:51;;;;;;;32.20;17.83;;;4.20;99.90;;;;;;5133370;27;20106;-58
2021/03/17 01:45:17;;;;;;;33.35;18.10;;;4.20;99.90;;;;;;5140073;27;20684;-59
2021/03/17 01:47:44;;;;;;;40.05;19.88;;;4.20;99.90;;;;;;5144970;27;20507;-60
2021/03/17 01:50:14;;;;;;;33.50;20.65;;;4.20;99.90;;;;;;5132986;27;20373;-59
2021/03/17 01:52:41;;;;;;;39.17;19.30;;;4.20;99.90;;;;;;5130402;27;20119;-60
2021/03/17 01:55:08;;;;;;;41.83;19.73;;;4.30;99.90;;;;;;5125391;27;20145;-59
2021/03/17 01:57:34;;;;;;;37.72;20.27;;;4.20;99.90;;;;;;5132921;27;20396;-58
2021/03/17 02:00:00;;;;;;;43.40;21.30;;;4.20;99.90;;;;;;5132684;27;20091;-57
2021/03/17 02:02:27;;;;;;;37.15;20.27;;;4.30;99.90;;;;;;5116285;27;20426;-57
2021/03/17 02:04:52;;;;;;;36.58;19.65;;;4.30;99.90;;;;;;5128435;27;20069;-58
2021/03/17 02:07:18;;;;;;;38.78;21.05;;;4.30;99.90;;;;;;5133140;27;20460;-59
2021/03/17 02:09:44;;;;;;;36.22;19.65;;;4.30;99.90;;;;;;5127961;27;20029;-56
2021/03/17 02:12:48;;;;;;;36.30;19.33;;;4.20;99.90;;;;;;5126265;27;20114;-57
2021/03/17 02:15:35;;;;;;;37.78;20.15;;;4.20;99.90;;;;;;5128044;27;20027;-57
2021/03/17 02:18:07;;;;;;;37.50;19.63;;;4.20;99.90;;;;;;5124092;27;20019;-55
2021/03/17 02:21:02;;;;;;;36.50;19.77;;;4.20;99.90;;;;;;5126042;27;20016;-55
2021/03/17 02:23:43;;;;;;;37.28;19.00;;;4.20;99.90;;;;;;5129747;27;20108;-59
2021/03/17 02:26:42;;;;;;;32.75;18.45;;;4.20;99.90;;;;;;5123132;27;20519;-57
2021/03/17 02:29:48;;;;;;;39.70;20.65;;;4.20;99.90;;;;;;5123214;27;20019;-56
2021/03/17 02:32:28;;;;;;;36.70;21.30;;;4.20;99.90;;;;;;5126851;27;20011;-58
2021/03/17 02:34:57;;;;;;;32.08;19.60;;;4.20;99.90;;;;;;5130995;27;20444;-57
2021/03/17 02:37:24;;;;;;;38.83;20.02;;;4.10;99.90;;;;;;5125925;27;20515;-57
2021/03/17 02:39:53;;;;;;;35.25;20.58;;;4.20;99.90;;;;;;5125013;27;20020;-58
2021/03/17 02:42:31;;;;;;;35.45;20.27;;;4.10;99.90;;;;;;5129349;27;20076;-60
2021/03/17 02:45:27;;;;;;;37.03;19.67;;;4.10;99.90;;;;;;5142219;27;20019;-58
2021/03/17 02:48:03;;;;;;;36.65;18.48;;;4.10;99.90;;;;;;5117551;27;20056;-58
2021/03/17 02:50:32;;;;;;;35.30;19.75;;;4.10;99.90;;;;;;5128956;27;20598;-60
2021/03/17 02:53:00;;;;;;;33.10;19.50;;;4.10;99.90;;;;;;5126060;27;20031;-59
2021/03/17 02:55:32;;;;;;;32.65;18.98;;;4.00;99.90;;;;;;5127544;27;20491;-57
2021/03/17 02:57:58;;;;;;;34.85;19.88;;;4.00;99.90;;;;;;5130165;27;20037;-59
2021/03/17 03:00:28;;;;;;;34.55;20.67;;;4.00;99.90;;;;;;5131463;27;20066;-56
2021/03/17 03:02:55;;;;;;;40.13;19.30;;;4.00;99.90;;;;;;5099751;27;20040;-58
2021/03/17 03:05:21;;;;;;;38.28;19.77;;;4.00;99.90;;;;;;5105836;28;20050;-60
2021/03/17 03:07:49;;;;;;;32.45;19.33;;;4.10;99.90;;;;;;5116515;27;20476;-59
2021/03/17 03:10:20;;;;;;;34.72;20.77;;;4.10;99.90;;;;;;5094200;27;20028;-59
2021/03/17 03:12:48;;;;;;;31.27;19.33;;;4.10;99.90;;;;;;5104490;27;20047;-60
2021/03/17 03:15:16;;;;;;;31.50;17.45;;;4.00;99.90;;;;;;5111554;27;20029;-57
2021/03/17 03:17:43;;;;;;;32.80;18.55;;;4.10;99.90;;;;;;5094470;27;20104;-58
2021/03/17 03:20:10;;;;;;;36.25;18.42;;;4.00;99.90;;;;;;5105559;28;20024;-57
2021/03/17 03:22:42;;;;;;;36.17;20.45;;;4.10;99.90;;;;;;5101123;27;20031;-58
2021/03/17 03:25:09;;;;;;;28.10;16.60;;;4.20;99.90;;;;;;5107295;28;20528;-59
2021/03/17 03:27:36;;;;;;;36.00;18.05;;;4.10;99.90;;;;;;5092722;27;20629;-58
2021/03/17 03:30:21;;;;;;;36.85;18.15;;;4.10;99.90;;;;;;5107178;27;20137;-57
2021/03/17 03:32:47;;;;;;;31.45;16.48;;;4.10;99.90;;;;;;5102758;28;20028;-59
2021/03/17 03:35:15;;;;;;;33.50;17.80;;;4.20;99.90;;;;;;5108282;28;20481;-59
2021/03/17 03:37:41;;;;;;;29.33;16.15;;;4.20;99.90;;;;;;5102378;27;20044;-57
2021/03/17 03:40:15;;;;;;;27.42;17.30;;;4.20;99.90;;;;;;5103965;28;20102;-57
2021/03/17 03:42:42;;;;;;;28.75;15.43;;;4.20;99.90;;;;;;5104360;27;20032;-60
2021/03/17 03:45:10;;;;;;;32.08;15.75;;;4.20;99.90;;;;;;5102661;27;20108;-60
2021/03/17 03:47:36;;;;;;;37.33;17.33;;;4.10;99.90;;;;;;5105267;28;20814;-56
2021/03/17 03:50:03;;;;;;;26.92;16.25;;;4.10;99.90;;;;;;5108782;27;20066;-57
2021/03/17 03:52:47;;;;;;;22.67;15.18;;;4.10;99.90;;;;;;5107822;28;20499;-60
2021/03/17 03:55:22;;;;;;;26.43;15.17;;;4.10;99.90;;;;;;5106978;28;20015;-58
2021/03/17 03:57:50;;;;;;;23.65;14.60;;;4.10;99.90;;;;;;5102403;28;20281;-59
2021/03/17 04:00:21;;;;;;;35.75;16.00;;;4.20;99.90;;;;;;5106246;27;20028;-60
2021/03/17 04:02:50;;;;;;;20.98;14.27;;;4.10;99.90;;;;;;5100961;28;20388;-58
2021/03/17 04:05:25;;;;;;;24.02;14.63;;;4.10;99.90;;;;;;5100590;28;20024;-60
2021/03/17 04:07:54;;;;;;;25.42;14.85;;;4.10;99.90;;;;;;5110591;27;20019;-57
2021/03/17 04:10:23;;;;;;;22.67;13.00;;;4.10;99.90;;;;;;5109029;27;20020;-59
2021/03/17 04:12:54;;;;;;;23.13;13.00;;;4.00;99.90;;;;;;5110700;28;20507;-59
2021/03/17 04:15:20;;;;;;;21.33;12.68;;;4.10;99.90;;;;;;5106497;27;20028;-58
2021/03/17 04:17:56;;;;;;;22.17;12.25;;;4.10;99.90;;;;;;5109269;28;20123;-60
2021/03/17 04:20:28;;;;;;;23.20;12.73;;;4.00;99.90;;;;;;5104651;28;20090;-59
2021/03/17 04:22:55;;;;;;;25.95;12.52;;;4.00;99.90;;;;;;5101600;28;20032;-58
2021/03/17 04:25:22;;;;;;;24.02;13.30;;;4.00;99.90;;;;;;5106072;28;20142;-60
2021/03/17 04:27:50;;;;;;;22.13;14.10;;;4.00;99.90;;;;;;5117950;28;20035;-58
2021/03/17 04:30:17;;;;;;;20.88;14.10;;;4.00;99.90;;;;;;5110491;28;20674;-57
2021/03/17 04:32:46;;;;;;;23.65;15.75;;;4.10;99.90;;;;;;5107286;28;20114;-57
2021/03/17 04:35:14;;;;;;;27.95;16.83;;;4.00;99.90;;;;;;5107353;28;20101;-56
2021/03/17 04:37:42;;;;;;;25.05;16.27;;;4.00;99.90;;;;;;5101281;28;20059;-57
2021/03/17 04:40:09;;;;;;;27.65;16.55;;;3.90;99.90;;;;;;5109454;28;20034;-61
2021/03/17 04:42:35;;;;;;;28.17;16.83;;;4.00;99.90;;;;;;5105214;27;20027;-59
2021/03/17 04:45:03;;;;;;;30.15;16.50;;;3.90;99.90;;;;;;5108147;28;20082;-60
2021/03/17 04:47:30;;;;;;;28.25;14.85;;;3.90;99.90;;;;;;5112954;28;20092;-60
2021/03/17 04:49:57;;;;;;;27.75;15.35;;;3.90;99.90;;;;;;5110568;28;20027;-60
2021/03/17 04:52:24;;;;;;;25.95;15.73;;;3.90;99.90;;;;;;5113276;28;20509;-59
2021/03/17 04:54:52;;;;;;;24.95;14.52;;;3.90;99.90;;;;;;5105764;28;20032;-59
2021/03/17 04:57:21;;;;;;;27.77;15.88;;;3.90;99.90;;;;;;5108708;28;20407;-56
2021/03/17 04:59:49;;;;;;;20.48;13.48;;;3.80;99.90;;;;;;5101882;28;20405;-60
2021/03/17 05:02:19;;;;;;;20.40;12.60;;;3.80;99.90;;;;;;5112052;28;20046;-60
2021/03/17 05:04:47;;;;;;;22.15;13.02;;;3.70;99.90;;;;;;5104812;28;20061;-58
2021/03/17 05:07:14;;;;;;;18.65;10.68;;;3.70;99.90;;;;;;5105281;28;20492;-59
2021/03/17 05:09:40;;;;;;;20.75;11.57;;;3.70;99.90;;;;;;5112159;28;20035;-59
2021/03/17 05:12:07;;;;;;;16.95;10.07;;;3.70;99.90;;;;;;5107876;28;20117;-57
2021/03/17 05:14:34;;;;;;;18.90;9.55;;;3.70;99.90;;;;;;5103853;28;20058;-58
2021/03/17 05:17:02;;;;;;;17.20;9.85;;;3.80;99.90;;;;;;5109127;28;20412;-59
2021/03/17 05:19:29;;;;;;;12.57;7.65;;;3.70;99.90;;;;;;5105097;28;20031;-59
2021/03/17 05:21:57;;;;;;;13.60;8.50;;;3.70;99.90;;;;;;5106814;28;20019;-58
2021/03/17 05:24:27;;;;;;;12.13;7.88;;;3.70;99.90;;;;;;5084533;27;20093;-56
2021/03/17 05:26:54;;;;;;;14.20;8.05;;;3.70;99.90;;;;;;5111690;27;20088;-60
2021/03/17 05:29:22;;;;;;;14.88;9.32;;;3.60;99.90;;;;;;5114532;27;20039;-59
2021/03/17 05:31:50;;;;;;;15.27;8.70;;;3.60;99.90;;;;;;5110100;27;20045;-60
2021/03/17 05:34:16;;;;;;;15.43;9.20;;;3.60;99.90;;;;;;5115160;27;20028;-60
2021/03/17 05:36:41;;;;;;;12.98;8.48;;;3.60;99.90;;;;;;5107024;27;20024;-57
2021/03/17 05:39:07;;;;;;;15.10;8.98;;;3.60;99.90;;;;;;5106678;27;20636;-55
2021/03/17 05:41:35;;;;;;;15.52;10.10;;;3.70;99.90;;;;;;5105806;27;20030;-57
2021/03/17 05:44:02;;;;;;;16.77;9.30;;;3.60;99.90;;;;;;5104774;27;20381;-58
2021/03/17 05:46:28;;;;;;;11.18;7.90;;;3.60;99.90;;;;;;5107535;27;20063;-59
2021/03/17 05:48:55;;;;;;;13.57;9.07;;;3.60;99.90;;;;;;5100566;28;20465;-59
2021/03/17 05:51:22;;;;;;;13.05;9.15;;;3.60;99.90;;;;;;5104242;28;20419;-58
2021/03/17 05:53:48;;;;;;;15.48;9.98;;;3.60;99.90;;;;;;5102443;28;20291;-58
2021/03/17 05:56:15;;;;;;;16.95;10.95;;;3.60;99.90;;;;;;5106653;27;20027;-58
2021/03/17 05:58:42;;;;;;;18.23;10.73;;;3.60;99.90;;;;;;5112090;27;20122;-58
2021/03/17 06:01:11;;;;;;;15.73;11.15;;;3.60;99.90;;;;;;5102413;27;20445;-59
2021/03/17 06:03:37;;;;;;;16.35;11.15;;;3.70;99.90;;;;;;5102720;28;20024;-58
2021/03/17 06:06:04;;;;;;;16.05;10.52;;;3.70;99.90;;;;;;5101625;28;20043;-58
2021/03/17 06:08:37;;;;;;;16.08;11.32;;;3.70;99.90;;;;;;5111523;27;20028;-59
2021/03/17 06:11:03;;;;;;;14.43;10.43;;;3.70;99.90;;;;;;5096244;28;20077;-59
2021/03/17 06:13:32;;;;;;;18.08;11.70;;;3.70;99.90;;;;;;5109817;27;20480;-59
2021/03/17 06:16:02;;;;;;;15.07;10.02;;;3.60;99.90;;;;;;5104767;27;20054;-60
2021/03/17 06:18:42;;;;;;;17.83;10.70;;;3.60;99.90;;;;;;5100936;28;20131;-58
2021/03/17 06:21:09;;;;;;;19.30;11.90;;;3.60;99.90;;;;;;5099789;27;20111;-60
2021/03/17 06:23:35;;;;;;;19.90;11.65;;;3.70;99.90;;;;;;5107048;28;20043;-56
2021/03/17 06:26:01;;;;;;;18.10;11.60;;;3.70;99.90;;;;;;5105597;27;20027;-57
2021/03/17 06:28:27;;;;;;;21.30;12.48;;;3.70;99.90;;;;;;5111885;27;20066;-60
2021/03/17 06:30:57;;;;;;;18.67;12.43;;;3.60;99.90;;;;;;5107054;28;20032;-58
2021/03/17 06:33:23;;;;;;;19.55;12.55;;;3.70;99.90;;;;;;5115451;27;20027;-59
2021/03/17 06:36:08;;;;;;;18.13;12.05;;;3.70;99.90;;;;;;5102848;28;20020;-57
2021/03/17 06:38:34;;;;;;;15.27;9.77;;;3.70;99.90;;;;;;5103917;27;20119;-60
2021/03/17 06:41:00;;;;;;;16.60;11.63;;;3.70;99.90;;;;;;5110527;28;20051;-60
2021/03/17 06:43:43;;;;;;;15.80;10.57;;;3.70;99.90;;;;;;5105067;27;20016;-59
2021/03/17 06:46:19;;;;;;;17.60;10.10;;;3.70;99.90;;;;;;5103461;28;20028;-61
2021/03/17 06:48:45;;;;;;;18.73;11.02;;;3.70;99.90;;;;;;5101137;27;20019;-59
2021/03/17 06:51:15;;;;;;;16.58;10.90;;;3.70;99.90;;;;;;5104718;28;20077;-59
2021/03/17 06:53:47;;;;;;;15.82;10.15;;;3.80;99.90;;;;;;5104545;27;20019;-57
2021/03/17 06:56:35;;;;;;;15.73;10.48;;;3.80;99.90;;;;;;5106157;27;20115;-58
2021/03/17 06:59:05;;;;;;;14.82;10.20;;;3.90;99.90;;;;;;5102872;28;20024;-59
2021/03/17 07:01:42;;;;;;;17.02;11.50;;;3.90;99.90;;;;;;5107570;27;20024;-60
2021/03/17 07:04:13;;;;;;;17.38;11.75;;;3.90;99.90;;;;;;5101245;27;20030;-58
2021/03/17 07:06:44;;;;;;;18.73;12.48;;;4.00;99.90;;;;;;5108255;28;20124;-58
2021/03/17 07:09:31;;;;;;;19.83;12.60;;;3.90;99.90;;;;;;5097463;27;20028;-59
2021/03/17 07:12:10;;;;;;;18.98;12.98;;;4.00;99.90;;;;;;5100246;28;20126;-59
2021/03/17 07:14:46;;;;;;;18.65;13.02;;;4.10;99.90;;;;;;5104732;27;20397;-58
2021/03/17 07:17:25;;;;;;;20.10;13.80;;;4.10;99.90;;;;;;5110475;27;20027;-59
2021/03/17 07:19:51;;;;;;;19.35;13.20;;;4.10;99.90;;;;;;5098293;28;20475;-59
2021/03/17 07:22:17;;;;;;;16.48;11.82;;;4.10;99.90;;;;;;5104351;27;20023;-59
2021/03/17 07:24:44;;;;;;;14.73;10.30;;;4.30;99.90;;;;;;5106646;28;20511;-58
2021/03/17 07:27:29;;;;;;;16.95;11.80;;;4.10;99.90;;;;;;5110842;27;20038;-58
2021/03/17 07:29:58;;;;;;;17.27;11.73;;;4.00;99.90;;;;;;5106335;28;20031;-59
2021/03/17 07:32:28;;;;;;;16.10;12.27;;;4.10;99.90;;;;;;5106829;27;20724;-58
2021/03/17 07:34:54;;;;;;;19.13;12.82;;;4.10;99.90;;;;;;5098020;28;20028;-59
2021/03/17 07:37:26;;;;;;;19.70;11.82;;;4.20;99.90;;;;;;5105875;27;20082;-58
2021/03/17 07:39:56;;;;;;;18.77;13.00;;;4.20;99.90;;;;;;5097921;28;20056;-58
2021/03/17 07:42:23;;;;;;;16.48;12.27;;;4.30;99.90;;;;;;5103188;27;20027;-59
2021/03/17 07:44:50;;;;;;;9.70;6.90;;;4.50;99.90;;;;;;5105521;27;20027;-61
2021/03/17 07:47:16;;;;;;;7.90;6.15;;;4.70;99.90;;;;;;5113679;27;20035;-60
2021/03/17 07:49:44;;;;;;;8.63;6.43;;;5.00;99.90;;;;;;5104834;27;21722;-59
2021/03/17 07:52:22;;;;;;;8.93;6.40;;;5.10;99.90;;;;;;5100459;27;20032;-57
2021/03/17 07:54:53;;;;;;;9.73;7.15;;;5.50;99.90;;;;;;5099064;28;20028;-58
2021/03/17 07:57:21;;;;;;;7.93;6.57;;;5.60;99.90;;;;;;5103308;27;20047;-60
2021/03/17 07:59:48;;;;;;;9.40;7.10;;;5.60;99.90;;;;;;5105321;28;20032;-59
2021/03/17 08:02:15;;;;;;;9.10;6.75;;;5.50;99.90;;;;;;5101794;27;20401;-58
2021/03/17 08:04:42;;;;;;;9.48;7.13;;;5.70;99.90;;;;;;5104826;27;20015;-60
2021/03/17 08:07:07;;;;;;;10.50;6.78;;;5.60;99.90;;;;;;5100612;28;20028;-58
2021/03/17 08:09:33;;;;;;;9.38;7.13;;;5.70;99.90;;;;;;5103894;27;20099;-58
2021/03/17 08:12:02;;;;;;;10.80;7.28;;;5.60;99.90;;;;;;5100235;28;20119;-59
2021/03/17 08:14:29;;;;;;;14.85;7.70;;;5.70;99.90;;;;;;5106507;28;20024;-59
2021/03/17 08:16:57;;;;;;;6.22;4.70;;;5.50;99.90;;;;;;5096975;28;20349;-58
2021/03/17 08:19:27;;;;;;;8.13;4.35;;;5.10;99.90;;;;;;5104683;27;20023;-59
2021/03/17 08:21:59;;;;;;;6.25;3.60;;;5.00;99.90;;;;;;5093886;28;20469;-56
2021/03/17 08:24:38;;;;;;;5.97;3.92;;;5.10;99.90;;;;;;5101347;28;20048;-60
2021/03/17 08:27:06;;;;;;;3.92;3.17;;;5.30;99.90;;;;;;5095509;28;20035;-59
2021/03/17 08:30:01;;;;;;;3.53;2.63;;;5.60;99.90;;;;;;5105685;28;20024;-60
2021/03/17 08:32:52;;;;;;;4.85;2.50;;;5.50;99.90;;;;;;5103478;28;20446;-59
2021/03/17 08:35:18;;;;;;;5.55;2.70;;;5.50;99.90;;;;;;5098668;28;20074;-59
2021/03/17 08:37:48;;;;;;;3.60;2.50;;;5.60;99.90;;;;;;5099335;28;20441;-58
2021/03/17 08:40:39;;;;;;;6.05;3.17;;;5.60;99.90;;;;;;5099573;28;20016;-60
2021/03/17 08:43:36;;;;;;;4.60;2.88;;;5.70;99.90;;;;;;5102120;28;20107;-59
2021/03/17 08:46:10;;;;;;;6.22;2.97;;;5.80;99.90;;;;;;5102651;28;20043;-59
2021/03/17 08:48:56;;;;;;;2.53;1.75;;;5.80;99.90;;;;;;5106621;28;20084;-60
2021/03/17 08:51:46;;;;;;;5.50;2.00;;;6.20;99.90;;;;;;5101995;28;20024;-59
2021/03/17 08:54:31;;;;;;;9.32;2.20;;;6.80;99.90;;;;;;5106496;27;20019;-61
2021/03/17 08:56:57;;;;;;;;;;;7.10;99.90;;;;;;5102155;27;20035;-60
2021/03/17 08:59:23;;;;;;;4.30;1.73;;;7.50;99.90;;;;;;5111590;28;20387;-61
2021/03/17 09:01:49;;;;;;;3.10;1.38;;;7.60;99.90;;;;;;5108799;28;20374;-60
2021/03/17 09:04:43;;;;;;;4.45;1.60;;;7.20;99.90;;;;;;5112713;27;20022;-59
2021/03/17 09:07:09;;;;;;;3.35;1.63;;;7.00;99.90;;;;;;5109618;27;20112;-59
2021/03/17 09:09:49;;;;;;;3.63;1.52;;;6.80;99.90;;;;;;5109297;27;20108;-61
2021/03/17 09:12:16;;;;;;;4.22;1.30;;;6.70;99.90;;;;;;5102001;28;20032;-60
2021/03/17 09:14:43;;;;;;;6.82;1.52;;;6.50;99.90;;;;;;5110332;27;20024;-61
2021/03/17 09:17:11;;;;;;;4.95;1.40;;;6.40;99.90;;;;;;5109099;27;20435;-58
2021/03/17 09:19:56;;;;;;;3.65;1.00;;;6.50;99.90;;;;;;5114205;27;20031;-60
2021/03/17 09:22:37;;;;;;;5.70;1.48;;;6.70;99.90;;;;;;5097526;27;20647;-58
2021/03/17 09:25:23;;;;;;;5.00;1.27;;;6.60;99.90;;;;;;5113384;27;20020;-59
2021/03/17 09:27:51;;;;;;;2.90;1.05;;;6.90;99.90;;;;;;5132817;27;20081;-61
2021/03/17 09:30:18;;;;;;;5.05;1.30;;;7.30;99.90;;;;;;5117965;27;20061;-59
2021/03/17 09:32:44;;;;;;;5.90;1.45;;;7.40;99.90;;;;;;5115030;27;20024;-60
2021/03/17 09:35:12;;;;;;;8.25;1.70;;;7.80;99.90;;;;;;5112307;27;20028;-58
2021/03/17 09:37:38;;;;;;;5.50;1.10;;;8.20;99.90;;;;;;5106930;27;20043;-58
2021/03/17 09:40:06;;;;;;;3.63;1.67;;;8.10;99.90;;;;;;5105963;27;20687;-58
2021/03/17 09:42:39;;;;;;;4.72;1.13;;;8.20;99.90;;;;;;5101344;28;20079;-60
2021/03/17 09:45:10;;;;;;;3.28;0.98;;;8.20;99.90;;;;;;5113090;27;20023;-60
2021/03/17 09:47:35;;;;;;;5.32;1.02;;;8.30;99.90;;;;;;5114022;27;20041;-60
2021/03/17 09:50:02;;;;;;;5.30;1.40;;;7.80;99.90;;;;;;5113206;27;20034;-60
2021/03/17 09:52:28;;;;;;;7.22;1.98;;;7.70;99.90;;;;;;5110475;27;20027;-60
2021/03/17 09:54:54;;;;;;;1.98;0.88;;;7.50;99.90;;;;;;5103276;28;20020;-59
2021/03/17 09:57:23;;;;;;;5.55;1.27;;;7.40;99.90;;;;;;5107491;28;20070;-61
2021/03/17 09:59:48;;;;;;;4.38;1.30;;;6.90;99.90;;;;;;5113867;27;20038;-60
2021/03/17 10:02:21;;;;;;;3.45;1.30;;;6.70;99.90;;;;;;5115572;27;20019;-60
2021/03/17 10:04:52;;;;;;;2.85;1.33;;;6.30;99.90;;;;;;5117596;27;20026;-60
2021/03/17 10:07:20;;;;;;;8.48;1.20;;;6.20;99.90;;;;;;5112705;27;20076;-60
2021/03/17 10:09:47;;;;;;;3.50;0.77;;;5.90;99.90;;;;;;5108997;27;20023;-60
2021/03/17 10:12:23;;;;;;;6.65;1.27;;;5.80;99.90;;;;;;5101713;28;20044;-59
2021/03/17 10:14:55;;;;;;;3.45;1.25;;;5.70;99.90;;;;;;5101005;28;20412;-60
2021/03/17 10:17:23;;;;;;;1.38;0.60;;;5.50;99.90;;;;;;5101020;28;20028;-59
2021/03/17 10:19:55;;;;;;;4.35;1.30;;;5.20;99.90;;;;;;5113815;27;20028;-60
2021/03/17 10:22:22;;;;;;;4.35;1.05;;;5.10;99.90;;;;;;5113638;27;20110;-59
2021/03/17 10:24:51;;;;;;;4.43;1.35;;;5.20;99.90;;;;;;5107623;27;20295;-58
2021/03/17 10:27:18;;;;;;;5.88;1.60;;;5.20;99.90;;;;;;5103580;28;20031;-60
2021/03/17 10:29:51;;;;;;;7.35;2.25;;;5.40;99.90;;;;;;5103916;28;20051;-58
2021/03/17 10:32:22;;;;;;;6.30;1.67;;;5.50;99.90;;;;;;5110354;28;20038;-58
2021/03/17 10:34:49;;;;;;;8.30;1.63;;;5.60;99.90;;;;;;5098287;28;20098;-60
2021/03/17 10:37:19;;;;;;;3.22;1.33;;;5.70;99.90;;;;;;5109146;28;20054;-61
2021/03/17 10:39:46;;;;;;;3.63;1.13;;;5.70;99.90;;;;;;5104304;28;20019;-60
2021/03/17 10:42:25;;;;;;;2.80;1.35;;;5.80;99.90;;;;;;5110777;28;20019;-60
2021/03/17 10:45:06;;;;;;;7.63;1.05;;;5.80;99.90;;;;;;5105251;27;20027;-59
2021/03/17 10:47:32;;;;;;;5.32;1.00;;;5.80;99.90;;;;;;5102251;27;20036;-58
2021/03/17 10:49:58;;;;;;;3.95;1.20;;;6.00;99.90;;;;;;5105761;27;20030;-60
2021/03/17 10:52:39;;;;;;;3.85;1.40;;;6.00;99.90;;;;;;5107025;28;20019;-57
2021/03/17 10:55:11;;;;;;;4.60;1.48;;;6.00;99.90;;;;;;5109357;27;20027;-59
2021/03/17 10:57:37;;;;;;;5.28;1.30;;;6.20;99.90;;;;;;5103027;28;20032;-59
2021/03/17 11:00:20;;;;;;;1.80;1.20;;;6.30;99.90;;;;;;5107522;27;20032;-59
2021/03/17 11:02:46;;;;;;;3.30;1.40;;;6.40;99.90;;;;;;5109003;27;20481;-59
2021/03/17 11:05:18;;;;;;;3.13;1.38;;;6.40;99.90;;;;;;5098484;28;20023;-60
2021/03/17 11:07:49;;;;;;;2.97;1.25;;;6.60;99.90;;;;;;5097824;27;20385;-56
2021/03/17 11:10:46;;;;;;;5.82;1.48;;;6.30;99.90;;;;;;5094841;28;20024;-59
2021/03/17 11:13:12;;;;;;;4.15;1.50;;;6.40;99.90;;;;;;5102250;27;20625;-60
2021/03/17 11:15:43;;;;;;;1.38;1.20;;;6.80;99.90;;;;;;5109455;27;20035;-59
2021/03/17 11:18:10;;;;;;;4.55;1.83;;;7.00;99.90;;;;;;5105960;28;20038;-61
2021/03/17 11:20:43;;;;;;;1.95;1.48;;;7.30;99.90;;;;;;5114199;27;20042;-59
2021/03/17 11:23:20;;;;;;;1.98;1.48;;;7.60;99.90;;;;;;5121211;27;20027;-59
2021/03/17 11:25:46;;;;;;;5.18;1.30;;;7.30;99.90;;;;;;5121938;27;20029;-59
2021/03/17 11:28:18;;;;;;;4.47;1.70;;;7.10;99.90;;;;;;5114975;27;20024;-60
2021/03/17 11:30:55;;;;;;;4.25;1.30;;;7.30;99.90;;;;;;5107205;27;20043;-60
2021/03/17 11:33:21;;;;;;;1.95;1.20;;;7.30;99.90;;;;;;5111344;27;20106;-61
2021/03/17 11:35:49;;;;;;;4.50;1.30;;;7.20;99.90;;;;;;5109859;28;20023;-60
2021/03/17 11:38:15;;;;;;;2.83;1.45;;;7.30;99.90;;;;;;5109113;27;20072;-59
2021/03/17 11:40:41;;;;;;;2.13;1.00;;;7.50;99.90;;;;;;5108711;27;20031;-58
2021/03/17 11:43:14;;;;;;;2.38;1.17;;;7.70;99.90;;;;;;5101591;28;20392;-58
2021/03/17 11:45:41;;;;;;;4.35;1.30;;;7.70;99.90;;;;;;5110960;28;20016;-59
2021/03/17 11:48:07;;;;;;;2.83;1.08;;;7.70;99.90;;;;;;5106678;28;20032;-60
2021/03/17 11:50:34;;;;;;;3.80;0.80;;;7.70;99.90;;;;;;5112602;27;20027;-60
2021/03/17 11:53:00;;;;;;;3.92;1.17;;;7.80;99.90;;;;;;5104030;28;20036;-59
2021/03/17 11:55:26;;;;;;;2.75;1.50;;;8.10;99.90;;;;;;5098841;28;20396;-58
2021/03/17 11:57:52;;;;;;;6.90;1.40;;;7.90;99.90;;;;;;5105378;28;20080;-58
2021/03/17 12:00:19;;;;;;;2.80;1.27;;;8.10;99.90;;;;;;5096410;27;20431;-60
2021/03/17 12:02:45;;;;;;;2.50;0.90;;;8.00;99.90;;;;;;5102724;28;20114;-58
2021/03/17 12:05:11;;;;;;;7.18;1.05;;;7.90;99.90;;;;;;5106481;27;20435;-59
2021/03/17 12:07:37;;;;;;;1.75;0.80;;;7.70;99.90;;;;;;5108309;28;20401;-59
2021/03/17 12:10:04;;;;;;;3.80;1.25;;;7.80;99.90;;;;;;5106667;27;20020;-57
2021/03/17 12:12:31;;;;;;;2.70;1.10;;;8.10;99.90;;;;;;5116951;27;20035;-59
2021/03/17 12:14:56;;;;;;;2.45;1.15;;;8.20;99.90;;;;;;5104839;27;20024;-60
2021/03/17 12:17:22;;;;;;;2.22;1.15;;;8.20;99.90;;;;;;5106259;27;20039;-61
2021/03/17 12:19:47;;;;;;;4.53;1.65;;;8.40;99.90;;;;;;5114335;27;20023;-59
2021/03/17 12:22:13;;;;;;;5.97;1.08;;;8.50;99.90;;;;;;5112480;27;20019;-60
2021/03/17 12:24:39;;;;;;;8.57;1.25;;;8.60;99.90;;;;;;5116488;27;20063;-60
2021/03/17 12:27:05;;;;;;;4.78;1.05;;;8.70;99.90;;;;;;5114095;28;20028;-59
2021/03/17 12:29:30;;;;;;;4.03;1.20;;;8.70;99.40;;;;;;5110381;28;20504;-60
2021/03/17 12:31:56;;;;;;;3.03;1.15;;;8.30;99.90;;;;;;5104392;28;20095;-59
2021/03/17 12:34:22;;;;;;;4.20;1.63;;;8.10;97.60;;;;;;5108940;28;20025;-59
2021/03/17 12:36:47;;;;;;;6.18;1.20;;;7.70;99.90;;;;;;5125645;28;20027;-60
2021/03/17 12:39:13;;;;;;;3.92;1.27;;;7.60;99.40;;;;;;5100545;28;20039;-59
2021/03/17 12:41:38;;;;;;;3.78;1.98;;;7.30;99.70;;;;;;5108680;28;20147;-59
2021/03/17 12:44:05;;;;;;;2.10;0.80;;;7.20;99.90;;;;;;5111434;28;20031;-60
2021/03/17 12:46:30;;;;;;;3.00;1.13;;;7.10;98.90;;;;;;5109301;28;20096;-59
2021/03/17 12:48:56;;;;;;;3.53;1.30;;;6.90;99.30;;;;;;5101526;28;20475;-59
2021/03/17 12:51:21;;;;;;;3.97;0.95;;;6.90;99.50;;;;;;5108830;28;20043;-60
2021/03/17 12:53:47;;;;;;;5.35;1.10;;;7.00;99.90;;;;;;5111823;28;20647;-58
2021/03/17 12:56:13;;;;;;;5.47;1.25;;;7.10;99.90;;;;;;5097635;28;20106;-60
2021/03/17 12:58:38;;;;;;;5.18;1.23;;;7.10;99.90;;;;;;5116508;28;20052;-61